Time;durP1;ratioP1;P1;durP2;ratioP2;P2;SDS_P1;SDS_P2;PMS_P1;PMS_P2;Temp;Humidity;BMP_temperature;BMP_pressure;BME280_temperature;BME280_humidity;BME280_pressure;Samples;Min_cycle;Max_cycle;Signal;HPM_P1;HPM_P2
2021/11/09 00:00:35;;;;;;;21.30;7.45;;;;;;;8.51;100.00;102510.34;5043299;28;20036;-73
2021/11/09 00:03:05;;;;;;;23.80;8.15;;;;;;;8.51;100.00;102508.50;5043720;28;20036;-73
2021/11/09 00:05:31;;;;;;;17.50;7.13;;;;;;;8.45;100.00;102512.78;5041536;28;20059;-73
2021/11/09 00:08:07;;;;;;;11.40;5.65;;;;;;;8.52;100.00;102518.16;5042081;28;20116;-73
2021/11/09 00:10:33;;;;;;;12.05;5.05;;;;;;;8.56;100.00;102516.75;5052784;28;20025;-73
2021/11/09 00:13:02;;;;;;;10.60;5.38;;;;;;;8.60;100.00;102514.53;5042621;28;20542;-73
2021/11/09 00:15:30;;;;;;;22.17;7.03;;;;;;;8.59;100.00;102529.72;5046355;28;20952;-74
2021/11/09 00:17:58;;;;;;;13.77;5.47;;;;;;;8.60;100.00;102527.88;5046019;28;20031;-73
2021/11/09 00:20:27;;;;;;;24.10;7.50;;;;;;;8.61;100.00;102529.53;5047736;28;20036;-72
2021/11/09 00:22:54;;;;;;;18.70;6.93;;;;;;;8.63;100.00;102533.69;5039282;28;20025;-73
2021/11/09 00:25:20;;;;;;;22.00;6.25;;;;;;;8.64;100.00;102532.69;5045393;28;20057;-73
2021/11/09 00:27:47;;;;;;;30.27;8.40;;;;;;;8.61;100.00;102543.72;5047375;28;20024;-73
2021/11/09 00:30:14;;;;;;;23.42;7.93;;;;;;;8.60;100.00;102542.06;5039957;28;20028;-73
2021/11/09 00:32:43;;;;;;;25.60;8.35;;;;;;;8.63;100.00;102538.22;5044895;28;20017;-73
2021/11/09 00:35:14;;;;;;;27.63;8.73;;;;;;;8.61;100.00;102546.38;5042733;28;20134;-73
2021/11/09 00:37:41;;;;;;;17.75;7.05;;;;;;;8.66;100.00;102546.66;5043663;28;20071;-72
2021/11/09 00:40:07;;;;;;;21.17;7.63;;;;;;;8.68;100.00;102555.31;5044908;28;20676;-73
2021/11/09 00:42:34;;;;;;;14.00;5.22;;;;;;;8.71;100.00;102554.94;5047461;28;20029;-73
2021/11/09 00:44:59;;;;;;;17.13;7.13;;;;;;;8.73;100.00;102552.06;5043018;28;20106;-73
2021/11/09 00:47:25;;;;;;;27.23;8.90;;;;;;;8.71;100.00;102554.09;5042366;28;20025;-73
2021/11/09 00:49:51;;;;;;;22.15;7.43;;;;;;;8.72;100.00;102559.25;5044432;28;20091;-72
2021/11/09 00:52:17;;;;;;;19.65;7.13;;;;;;;8.71;100.00;102556.78;5044513;28;20037;-73
2021/11/09 00:54:42;;;;;;;23.48;7.57;;;;;;;8.70;100.00;102555.94;5039484;28;20029;-73
2021/11/09 00:57:08;;;;;;;19.30;6.53;;;;;;;8.70;100.00;102563.97;5042626;28;20490;-73
2021/11/09 00:59:34;;;;;;;22.63;7.90;;;;;;;8.67;100.00;102556.34;5043555;28;20632;-73
2021/11/09 01:02:00;;;;;;;22.08;7.72;;;;;;;8.63;100.00;102551.56;5043520;28;20030;-73
2021/11/09 01:04:26;;;;;;;25.27;7.30;;;;;;;8.59;100.00;102556.44;5048836;28;20021;-73
2021/11/09 01:06:53;;;;;;;21.30;8.25;;;;;;;8.53;100.00;102556.41;5045497;28;20032;-73
2021/11/09 01:09:19;;;;;;;16.60;7.18;;;;;;;8.50;100.00;102554.94;5045262;28;20035;-73
2021/11/09 01:11:45;;;;;;;18.75;6.93;;;;;;;8.55;100.00;102552.50;5044374;28;20032;-73
2021/11/09 01:14:11;;;;;;;21.40;8.95;;;;;;;8.55;100.00;102557.84;5042294;28;20090;-73
2021/11/09 01:16:37;;;;;;;22.88;8.63;;;;;;;8.58;100.00;102560.13;5042815;28;20398;-73
2021/11/09 01:19:05;;;;;;;28.27;8.93;;;;;;;8.58;100.00;102565.47;5043587;28;20036;-73
2021/11/09 01:21:32;;;;;;;20.08;7.20;;;;;;;8.61;100.00;102567.75;5034674;28;20468;-73
2021/11/09 01:23:58;;;;;;;22.75;8.93;;;;;;;8.62;100.00;102569.44;5045044;28;20127;-73
2021/11/09 01:26:24;;;;;;;15.48;6.97;;;;;;;8.63;100.00;102568.44;5043506;28;20475;-73
2021/11/09 01:28:53;;;;;;;14.75;7.60;;;;;;;8.69;100.00;102569.50;5042706;28;20044;-73
2021/11/09 01:31:18;;;;;;;24.98;8.13;;;;;;;8.68;100.00;102568.69;5044170;28;20036;-73
2021/11/09 01:33:46;;;;;;;22.17;7.75;;;;;;;8.63;100.00;102563.09;5048804;28;20380;-73
2021/11/09 01:36:12;;;;;;;20.35;7.55;;;;;;;8.66;100.00;102557.34;5041159;28;20024;-73
2021/11/09 01:38:52;;;;;;;18.10;7.95;;;;;;;8.69;100.00;102562.31;5098450;27;20487;-56
2021/11/09 01:41:18;;;;;;;20.77;9.30;;;;;;;8.69;100.00;102559.66;5080636;28;20043;-57
2021/11/09 01:43:44;;;;;;;17.83;6.93;;;;;;;8.70;100.00;102561.28;5088159;28;20080;-56
2021/11/09 01:46:11;;;;;;;24.63;8.10;;;;;;;8.71;100.00;102552.25;5091003;28;20478;-55
2021/11/09 01:48:38;;;;;;;27.48;8.77;;;;;;;8.66;100.00;102557.34;5095404;28;20072;-55
2021/11/09 01:51:07;;;;;;;21.15;9.13;;;;;;;8.64;100.00;102554.06;5103504;28;20023;-57
2021/11/09 01:53:35;;;;;;;37.42;11.60;;;;;;;8.65;100.00;102555.69;5059402;22;20042;-72
2021/11/09 01:56:02;;;;;;;30.27;9.05;;;;;;;8.62;100.00;102563.28;5030593;28;20029;-72
2021/11/09 01:58:31;;;;;;;27.73;10.70;;;;;;;8.65;100.00;102561.06;5024864;28;20555;-72
2021/11/09 02:01:01;;;;;;;28.85;10.45;;;;;;;8.68;100.00;102566.00;5028412;28;20037;-72
2021/11/09 02:03:28;;;;;;;25.02;9.20;;;;;;;8.71;100.00;102568.28;5044207;28;20025;-72
2021/11/09 02:05:54;;;;;;;32.35;10.45;;;;;;;8.69;100.00;102573.00;5035116;28;20112;-72
2021/11/09 02:08:21;;;;;;;35.53;12.32;;;;;;;8.67;100.00;102566.19;5024334;28;20140;-72
2021/11/09 02:10:48;;;;;;;26.30;9.15;;;;;;;8.69;100.00;102572.19;5028258;28;20021;-72
2021/11/09 02:13:17;;;;;;;28.98;11.13;;;;;;;8.66;100.00;102577.91;5024404;28;20033;-72
2021/11/09 02:15:43;;;;;;;39.45;12.63;;;;;;;8.57;100.00;102576.38;5026831;28;20034;-72
2021/11/09 02:18:11;;;;;;;35.42;13.20;;;;;;;8.54;100.00;102574.91;5038383;28;20029;-72
2021/11/09 02:20:37;;;;;;;34.95;11.40;;;;;;;8.57;100.00;102576.38;5028091;28;20040;-72
2021/11/09 02:23:05;;;;;;;39.80;12.10;;;;;;;8.55;100.00;102587.25;5035944;28;20028;-72
2021/11/09 02:25:32;;;;;;;33.15;11.23;;;;;;;8.58;100.00;102580.69;5025728;28;20028;-72
2021/11/09 02:28:01;;;;;;;46.45;13.73;;;;;;;8.59;100.00;102582.34;5028615;28;20021;-72
2021/11/09 02:30:29;;;;;;;30.88;12.30;;;;;;;8.61;100.00;102581.13;5029377;28;20391;-72
2021/11/09 02:32:56;;;;;;;32.15;10.32;;;;;;;8.67;100.00;102588.41;5031730;28;20033;-72
2021/11/09 02:35:23;;;;;;;34.72;11.88;;;;;;;8.67;100.00;102583.06;5030624;28;20033;-72
2021/11/09 02:37:54;;;;;;;37.60;11.60;;;;;;;8.66;100.00;102583.25;5028808;28;20099;-72
2021/11/09 02:40:20;;;;;;;46.55;13.82;;;;;;;8.66;100.00;102578.72;5027092;28;20060;-73
2021/11/09 02:42:49;;;;;;;27.92;10.38;;;;;;;8.61;100.00;102582.97;5026582;28;20136;-73
2021/11/09 02:45:27;;;;;;;28.50;10.48;;;;;;;8.64;100.00;102585.28;5033703;28;20407;-72
2021/11/09 02:47:58;;;;;;;46.88;12.48;;;;;;;8.62;100.00;102584.66;5036806;28;20029;-72
2021/11/09 02:50:26;;;;;;;29.80;10.75;;;;;;;8.57;100.00;102593.22;5016119;28;20040;-72
2021/11/09 02:53:02;;;;;;;30.52;9.35;;;;;;;8.58;100.00;102597.53;5015030;28;20387;-72
2021/11/09 02:55:36;;;;;;;33.92;11.32;;;;;;;8.59;100.00;102588.50;5014910;28;20037;-72
2021/11/09 03:03:34;;;;;;;27.95;9.40;;;;;;;8.61;100.00;102591.00;5017664;28;20030;-73
2021/11/09 03:08:45;;;;;;;29.88;10.07;;;;;;;8.56;100.00;102596.91;5014700;28;20029;-72
2021/11/09 03:11:11;;;;;;;29.10;9.35;;;;;;;8.53;100.00;102599.97;5028440;28;20025;-72
2021/11/09 03:13:37;;;;;;;33.88;11.18;;;;;;;8.46;100.00;102604.41;5015742;28;20044;-72
2021/11/09 03:16:09;;;;;;;32.88;10.40;;;;;;;8.44;100.00;102606.47;5017483;28;20025;-72
2021/11/09 03:18:42;;;;;;;34.47;11.57;;;;;;;8.41;100.00;102609.47;5011376;28;20029;-72
2021/11/09 03:45:26;;;;;;;30.70;9.23;;;;;;;8.30;100.00;102616.13;5013960;28;20036;-72
2021/11/09 03:47:56;;;;;;;35.55;9.70;;;;;;;8.30;100.00;102621.47;5010969;28;20030;-72
2021/11/09 03:50:24;;;;;;;32.22;9.90;;;;;;;8.32;100.00;102621.28;5015498;28;20107;-72
2021/11/09 03:52:55;;;;;;;23.50;8.43;;;;;;;8.32;100.00;102618.59;5018181;28;20033;-72
2021/11/09 03:56:03;;;;;;;24.27;8.77;;;;;;;8.35;100.00;102623.59;5014017;28;20112;-72
2021/11/09 03:58:20;;;;;;;28.48;8.88;;;;;;;8.28;100.00;102628.00;5007809;28;20056;-72
2021/11/09 04:05:45;;;;;;;28.15;8.60;;;;;;;8.36;100.00;102641.28;5013087;28;20030;-72
2021/11/09 04:11:21;;;;;;;31.55;8.50;;;;;;;8.11;100.00;102659.41;5015514;28;20036;-72
2021/11/09 04:14:03;;;;;;;25.33;8.43;;;;;;;8.23;100.00;102657.09;5008810;28;20025;-72
2021/11/09 04:21:35;;;;;;;26.15;8.38;;;;;;;8.29;100.00;102649.19;5016535;28;20030;-72
2021/11/09 05:01:52;;;;;;;24.30;9.00;;;;;;;8.09;100.00;102707.66;5011943;28;20036;-72
2021/11/09 05:10:08;;;;;;;26.85;9.15;;;;;;;8.03;100.00;102711.03;4979113;28;20501;-72
2021/11/09 05:12:34;;;;;;;23.55;9.23;;;;;;;7.91;100.00;102707.19;4975990;28;20038;-72
2021/11/09 05:15:00;;;;;;;27.67;9.65;;;;;;;7.92;100.00;102716.03;4993870;28;20052;-73
2021/11/09 05:17:26;;;;;;;26.33;9.68;;;;;;;7.92;100.00;102718.69;5014325;28;20033;-72
2021/11/09 05:19:51;;;;;;;24.63;10.57;;;;;;;7.91;100.00;102711.69;5013860;28;20034;-72
2021/11/09 05:22:17;;;;;;;26.05;10.23;;;;;;;8.01;100.00;102715.75;5007621;28;20044;-72
2021/11/09 05:24:43;;;;;;;23.83;10.55;;;;;;;7.99;100.00;102719.63;5011634;28;20492;-72
2021/11/09 05:27:11;;;;;;;31.17;10.13;;;;;;;7.94;100.00;102720.16;5008775;28;20044;-72
2021/11/09 05:29:37;;;;;;;28.20;10.73;;;;;;;7.93;100.00;102715.84;5015032;28;20519;-72
2021/11/09 05:32:04;;;;;;;24.38;10.65;;;;;;;8.04;100.00;102722.56;5014321;28;20373;-72
2021/11/09 05:34:30;;;;;;;25.05;11.02;;;;;;;8.07;100.00;102728.34;5018163;28;20550;-73
2021/11/09 05:36:57;;;;;;;23.40;10.27;;;;;;;8.04;100.00;102726.06;5009110;28;20037;-72
2021/11/09 05:39:35;;;;;;;26.92;11.40;;;;;;;8.07;100.00;102727.53;5013800;28;20579;-72
2021/11/09 05:42:00;;;;;;;28.92;11.23;;;;;;;8.08;100.00;102730.03;5007684;28;20113;-72
2021/11/09 05:44:27;;;;;;;23.67;10.13;;;;;;;8.16;100.00;102732.59;5017676;28;20117;-71
2021/11/09 05:46:53;;;;;;;28.25;10.88;;;;;;;8.18;100.00;102729.75;5011013;28;20030;-71
2021/11/09 05:49:18;;;;;;;26.63;9.88;;;;;;;8.21;100.00;102734.72;5007110;28;20487;-71
2021/11/09 05:51:44;;;;;;;19.73;9.93;;;;;;;8.24;100.00;102738.84;5009507;28;20452;-67
2021/11/09 05:54:10;;;;;;;26.30;11.15;;;;;;;8.25;100.00;102746.69;5010738;28;20107;-73
2021/11/09 05:56:36;;;;;;;22.30;10.45;;;;;;;8.29;100.00;102739.16;5010802;28;20447;-73
2021/11/09 05:59:02;;;;;;;22.73;8.82;;;;;;;8.33;100.00;102749.28;5008190;28;20034;-73
2021/11/09 06:01:27;;;;;;;21.77;10.05;;;;;;;8.32;100.00;102747.63;5013000;28;20109;-73
2021/11/09 06:03:53;;;;;;;25.60;9.95;;;;;;;8.33;100.00;102754.63;5009921;28;20129;-73
2021/11/09 06:06:18;;;;;;;22.67;10.15;;;;;;;8.24;100.00;102760.22;5023545;28;20144;-73
2021/11/09 06:08:46;;;;;;;30.65;9.63;;;;;;;8.11;100.00;102764.38;5011629;28;20037;-73
2021/11/09 06:11:12;;;;;;;24.85;10.18;;;;;;;8.06;100.00;102771.25;5013434;28;20034;-73
2021/11/09 06:13:37;;;;;;;25.98;10.13;;;;;;;8.16;100.00;102775.34;5013651;28;20033;-73
2021/11/09 06:16:03;;;;;;;20.75;9.70;;;;;;;8.21;100.00;102772.09;5008909;28;20471;-72
2021/11/09 06:18:28;;;;;;;23.77;9.50;;;;;;;8.26;100.00;102768.88;5022717;28;20022;-73
2021/11/09 06:20:54;;;;;;;26.02;9.95;;;;;;;8.29;100.00;102773.88;5005694;28;20033;-73
2021/11/09 06:23:19;;;;;;;25.30;10.40;;;;;;;8.30;100.00;102781.69;5008389;28;20028;-72
2021/11/09 06:25:45;;;;;;;22.02;10.15;;;;;;;8.29;100.00;102790.72;5018739;28;20035;-73
2021/11/09 06:28:12;;;;;;;31.27;11.48;;;;;;;8.30;100.00;102807.59;5014567;28;20152;-73
2021/11/09 06:30:38;;;;;;;26.40;10.88;;;;;;;8.33;100.00;102807.22;5012913;28;20450;-72
2021/11/09 06:33:04;;;;;;;30.13;11.48;;;;;;;8.36;100.00;102814.88;5009684;28;20104;-73
2021/11/09 06:35:29;;;;;;;28.05;10.52;;;;;;;8.38;100.00;102815.53;5012009;28;20030;-73
2021/11/09 06:37:55;;;;;;;30.67;11.32;;;;;;;8.34;100.00;102820.41;5010637;28;20035;-73
2021/11/09 06:40:21;;;;;;;23.27;10.50;;;;;;;8.32;100.00;102819.75;5017402;28;20029;-73
2021/11/09 06:42:47;;;;;;;24.08;10.82;;;;;;;8.31;100.00;102820.75;5015155;28;20112;-73
2021/11/09 06:45:13;;;;;;;27.83;10.52;;;;;;;8.29;100.00;102827.28;5012159;28;20140;-73
2021/11/09 06:47:38;;;;;;;27.70;11.35;;;;;;;8.34;100.00;102833.78;5012476;28;20021;-73
2021/11/09 06:50:07;;;;;;;22.80;10.02;;;;;;;8.37;100.00;102835.25;5010241;28;20526;-73
2021/11/09 06:52:33;;;;;;;21.83;9.20;;;;;;;8.42;100.00;102838.19;5014706;28;20140;-73
2021/11/09 06:54:59;;;;;;;24.00;10.30;;;;;;;8.45;100.00;102844.03;5016940;28;20095;-73
2021/11/09 06:57:24;;;;;;;23.23;9.93;;;;;;;8.50;100.00;102846.13;5015651;28;20104;-73
2021/11/09 06:59:50;;;;;;;25.65;10.85;;;;;;;8.53;100.00;102852.94;5014025;28;20033;-73
2021/11/09 07:02:17;;;;;;;25.63;9.93;;;;;;;8.57;100.00;102867.59;5026814;28;20099;-72
2021/11/09 07:04:43;;;;;;;19.33;9.73;;;;;;;8.58;100.00;102863.91;5011380;28;20033;-73
2021/11/09 07:07:08;;;;;;;23.05;9.85;;;;;;;8.56;100.00;102858.75;5014256;28;20076;-73
2021/11/09 07:09:34;;;;;;;25.90;10.18;;;;;;;8.56;100.00;102866.75;5012490;28;20136;-72
2021/11/09 07:12:00;;;;;;;27.48;10.45;;;;;;;8.53;100.00;102871.66;5011095;28;20037;-73
2021/11/09 07:14:25;;;;;;;25.88;10.80;;;;;;;8.48;100.00;102874.88;5010994;28;20022;-73
2021/11/09 07:16:52;;;;;;;27.95;11.05;;;;;;;8.46;100.00;102882.25;5012478;28;20155;-73
2021/11/09 07:19:19;;;;;;;27.50;11.27;;;;;;;8.51;100.00;102885.19;5009844;28;20397;-73
2021/11/09 07:21:46;;;;;;;17.65;10.10;;;;;;;8.53;100.00;102890.34;5012105;28;20041;-73
2021/11/09 07:24:12;;;;;;;27.38;11.35;;;;;;;8.48;100.00;102886.41;5013642;28;20021;-73
2021/11/09 07:26:38;;;;;;;25.92;11.82;;;;;;;8.53;100.00;102893.03;5011032;28;20489;-73
2021/11/09 07:29:04;;;;;;;29.35;11.95;;;;;;;8.58;100.00;102890.63;5011952;28;20057;-73
2021/11/09 07:31:31;;;;;;;27.88;11.68;;;;;;;8.62;100.00;102892.78;5015548;28;20105;-73
2021/11/09 07:33:58;;;;;;;23.67;11.60;;;;;;;8.67;100.00;102895.72;5010750;28;20049;-73
2021/11/09 07:36:25;;;;;;;22.15;10.68;;;;;;;8.69;100.00;102898.22;5010427;28;20492;-73
2021/11/09 07:38:50;;;;;;;23.60;11.40;;;;;;;8.78;100.00;102903.28;5013295;28;20048;-73
2021/11/09 07:41:17;;;;;;;28.58;11.50;;;;;;;8.85;100.00;102897.22;5012874;28;20037;-72
2021/11/09 07:43:42;;;;;;;23.50;10.45;;;;;;;8.95;100.00;102900.41;5016311;28;20033;-72
2021/11/09 07:46:08;;;;;;;25.55;12.10;;;;;;;9.00;100.00;102896.19;5009596;28;20049;-73
2021/11/09 07:48:33;;;;;;;26.92;12.13;;;;;;;9.01;100.00;102899.69;5013456;28;20180;-73
2021/11/09 07:50:59;;;;;;;24.38;10.77;;;;;;;9.12;100.00;102906.41;5010957;28;20034;-73
2021/11/09 07:53:30;;;;;;;25.00;11.00;;;;;;;9.22;100.00;102904.28;5018529;28;20123;-72
2021/11/09 07:56:18;;;;;;;27.92;11.23;;;;;;;9.39;100.00;102911.91;5010542;28;20029;-73
2021/11/09 08:01:22;;;;;;;20.23;10.48;;;;;;;9.48;100.00;102912.63;5009800;28;20449;-72
2021/11/09 08:04:00;;;;;;;24.85;10.43;;;;;;;9.47;100.00;102921.66;5013120;28;20063;-73
2021/11/09 08:08:59;;;;;;;25.02;10.48;;;;;;;9.63;100.00;102926.81;5011271;28;20022;-73
2021/11/09 08:11:25;;;;;;;25.35;12.13;;;;;;;9.65;100.00;102935.47;5013351;28;20835;-72
2021/11/09 08:13:51;;;;;;;23.77;10.88;;;;;;;9.73;100.00;102933.72;5016713;28;20124;-72
2021/11/09 08:16:17;;;;;;;23.00;10.88;;;;;;;9.60;99.59;102931.72;5016998;28;20033;-73
2021/11/09 08:18:44;;;;;;;22.55;9.77;;;;;;;9.37;100.00;102935.34;5014012;28;20038;-72
2021/11/09 08:21:12;;;;;;;24.75;10.07;;;;;;;9.29;100.00;102926.59;5012518;28;20155;-73
2021/11/09 08:23:37;;;;;;;24.60;10.82;;;;;;;9.41;100.00;102913.56;5010721;28;20029;-73
2021/11/09 08:26:03;;;;;;;26.55;12.15;;;;;;;9.27;100.00;102924.09;5012303;28;20484;-73
2021/11/09 08:28:29;;;;;;;27.88;12.40;;;;;;;9.19;100.00;102926.91;5011176;28;20025;-73
2021/11/09 08:31:01;;;;;;;21.60;10.15;;;;;;;9.19;100.00;102929.56;5009715;28;20061;-73
2021/11/09 08:33:29;;;;;;;25.27;12.30;;;;;;;9.11;100.00;102924.28;5025986;28;20148;-72
2021/11/09 08:35:56;;;;;;;22.15;10.40;;;;;;;9.16;100.00;102924.59;5011036;28;20030;-73
2021/11/09 08:38:21;;;;;;;16.15;8.98;;;;;;;9.15;100.00;102933.59;5011487;28;20065;-73
2021/11/09 08:40:48;;;;;;;17.08;9.57;;;;;;;9.23;100.00;102925.50;5008149;28;20436;-73
2021/11/09 08:43:18;;;;;;;23.80;9.70;;;;;;;9.19;100.00;102937.59;5015240;28;20036;-72
2021/11/09 08:46:02;;;;;;;13.13;7.72;;;;;;;8.98;100.00;102937.50;5011260;28;20034;-72
2021/11/09 08:48:34;;;;;;;16.40;8.80;;;;;;;9.03;100.00;102945.78;5009536;28;20507;-72
2021/11/09 08:50:59;;;;;;;17.42;8.57;;;;;;;9.26;100.00;102946.53;5011662;28;20033;-73
2021/11/09 08:53:34;;;;;;;20.33;8.27;;;;;;;9.37;99.53;102946.06;5009386;28;20174;-72
2021/11/09 09:04:11;;;;;;;12.73;7.13;;;;;;;9.78;97.25;102953.53;5011937;28;20118;-73
2021/11/09 09:04:19;;;;;;;13.48;6.32;;;;;;;9.67;96.58;102957.53;5011718;28;20480;-73
2021/11/09 09:06:53;;;;;;;15.98;8.07;;;;;;;9.56;96.99;102954.53;5008982;28;20049;-72
2021/11/09 09:09:20;;;;;;;16.63;8.27;;;;;;;9.58;97.33;102953.31;5013250;28;20022;-72
2021/11/09 09:11:50;;;;;;;18.15;8.38;;;;;;;9.66;97.94;102957.72;5009395;28;20036;-72
2021/11/09 09:14:18;;;;;;;14.70;8.30;;;;;;;9.72;97.41;102956.16;5011335;28;20026;-73
2021/11/09 09:16:46;;;;;;;12.05;7.25;;;;;;;9.69;96.44;102955.50;5009519;28;20598;-73
2021/11/09 09:19:16;;;;;;;13.98;7.75;;;;;;;9.71;96.08;102955.31;5009371;28;20678;-73
2021/11/09 09:27:17;;;;;;;17.02;6.93;;;;;;;9.97;95.13;102963.63;4989446;28;20057;-72
2021/11/09 09:54:40;;;;;;;15.63;7.82;;;;;;;10.16;92.86;102993.50;5009426;28;20064;-72
2021/11/09 09:57:06;;;;;;;10.45;6.97;;;;;;;10.17;93.18;103001.34;5008371;28;20492;-73
2021/11/09 09:59:34;;;;;;;16.30;8.10;;;;;;;10.13;93.37;103004.59;5024358;28;20041;-72
2021/11/09 10:02:08;;;;;;;12.35;7.13;;;;;;;10.06;93.25;103003.72;5012695;28;20037;-72
2021/11/09 10:04:37;;;;;;;13.45;7.32;;;;;;;10.25;93.31;103008.47;5011592;28;20026;-73
2021/11/09 10:07:05;;;;;;;17.40;7.88;;;;;;;10.28;92.93;103008.09;5018837;28;20508;-72
2021/11/09 10:09:44;;;;;;;16.70;8.80;;;;;;;10.41;92.74;103018.94;5014006;28;20120;-72
2021/11/09 10:12:21;;;;;;;19.60;8.15;;;;;;;10.50;92.01;103004.38;5012325;28;20131;-73
2021/11/09 10:14:50;;;;;;;16.90;7.28;;;;;;;10.56;90.97;103011.63;5013105;28;20033;-72
2021/11/09 10:17:18;;;;;;;19.67;8.85;;;;;;;10.52;91.21;103010.38;5012971;28;20033;-73
2021/11/09 10:19:44;;;;;;;14.23;7.18;;;;;;;10.52;91.24;103014.91;5014099;28;20184;-72
2021/11/09 10:22:30;;;;;;;15.07;7.63;;;;;;;10.36;90.92;103015.16;5014807;28;20040;-72
2021/11/09 10:25:04;;;;;;;17.58;7.93;;;;;;;10.37;91.72;103008.78;5011732;28;20041;-72
2021/11/09 10:27:32;;;;;;;14.00;7.55;;;;;;;10.44;91.77;103012.38;5012327;28;20022;-72
2021/11/09 10:29:59;;;;;;;15.80;7.32;;;;;;;10.54;91.67;102999.44;5010746;28;20022;-72
2021/11/09 10:32:30;;;;;;;19.80;8.38;;;;;;;10.62;91.33;103006.53;5013167;28;20029;-72
2021/11/09 10:34:59;;;;;;;14.15;7.25;;;;;;;10.69;90.86;102999.38;5015241;28;20030;-73
2021/11/09 10:37:28;;;;;;;14.27;6.40;;;;;;;10.55;89.85;102996.56;5013125;28;20512;-73
2021/11/09 10:40:05;;;;;;;13.55;7.97;;;;;;;10.66;90.10;102989.03;5011206;28;20022;-72
2021/11/09 10:42:31;;;;;;;12.38;7.55;;;;;;;10.80;89.84;102986.28;5010797;28;20026;-72
2021/11/09 10:45:09;;;;;;;13.57;7.00;;;;;;;10.82;89.39;102986.09;5014485;28;20033;-72
2021/11/09 10:47:36;;;;;;;16.05;7.80;;;;;;;10.62;89.08;102987.78;5012257;28;20084;-72
2021/11/09 10:50:08;;;;;;;17.10;7.60;;;;;;;10.69;89.32;102991.34;5014009;28;20026;-72
2021/11/09 10:52:37;;;;;;;15.60;7.05;;;;;;;10.95;89.91;102988.88;5011558;28;20084;-72
2021/11/09 10:55:45;;;;;;;14.98;7.18;;;;;;;10.72;89.44;102982.91;5012229;28;20036;-73
2021/11/09 11:06:17;;;;;;;16.20;7.10;;;;;;;11.06;89.16;102984.78;5013674;28;20949;-72
2021/11/09 11:08:45;;;;;;;13.45;7.75;;;;;;;10.96;88.56;102995.88;5011272;28;20037;-72
2021/11/09 11:11:22;;;;;;;16.88;8.45;;;;;;;10.96;89.03;102990.53;5010792;28;20030;-72
2021/11/09 11:13:50;;;;;;;15.77;7.43;;;;;;;11.07;89.31;102987.28;5011812;28;20034;-72
2021/11/09 11:16:17;;;;;;;16.10;7.88;;;;;;;11.16;88.62;102979.91;5016061;28;20022;-72
2021/11/09 11:18:46;;;;;;;18.45;8.32;;;;;;;11.14;88.28;102977.44;5011274;28;20091;-72
2021/11/09 11:21:16;;;;;;;13.93;7.22;;;;;;;11.32;88.17;102979.59;5011028;28;20097;-73
2021/11/09 11:23:43;;;;;;;18.80;7.93;;;;;;;11.49;87.22;102972.03;5008377;28;20568;-72
2021/11/09 11:26:10;;;;;;;17.23;7.93;;;;;;;11.44;85.69;102971.78;5020957;28;20028;-73
2021/11/09 11:28:40;;;;;;;12.55;6.63;;;;;;;11.19;84.91;102980.34;5015331;28;20526;-73
2021/11/09 11:31:07;;;;;;;16.60;7.70;;;;;;;11.36;86.03;102980.84;5013310;28;20080;-73
2021/11/09 11:33:34;;;;;;;17.25;7.70;;;;;;;11.37;86.16;102979.00;5010175;28;20029;-72
2021/11/09 11:36:00;;;;;;;17.65;7.60;;;;;;;11.40;86.86;102979.41;5013504;28;20022;-72
2021/11/09 11:38:26;;;;;;;16.10;7.95;;;;;;;11.35;86.04;102981.06;5010472;28;20034;-73
2021/11/09 11:40:57;;;;;;;17.48;8.13;;;;;;;11.24;86.13;102977.06;5011361;28;20092;-73
2021/11/09 11:43:47;;;;;;;18.58;8.45;;;;;;;11.21;86.27;102972.09;5013936;28;20052;-73
2021/11/09 11:46:15;;;;;;;14.30;7.28;;;;;;;11.35;86.71;102975.69;5009310;28;20813;-72
2021/11/09 11:49:02;;;;;;;18.48;8.80;;;;;;;11.17;85.68;102982.41;5014141;28;20112;-72
2021/11/09 11:51:30;;;;;;;16.67;8.55;;;;;;;11.24;85.61;102982.44;5008319;28;20087;-72
2021/11/09 11:53:56;;;;;;;20.08;7.85;;;;;;;11.58;84.17;102980.75;5013435;28;20026;-72
2021/11/09 11:56:51;;;;;;;16.00;6.63;;;;;;;11.92;81.46;102977.16;5008043;28;20029;-73
2021/11/09 11:59:22;;;;;;;21.00;7.00;;;;;;;12.32;80.84;102980.75;5009166;28;20072;-72
2021/11/09 12:01:52;;;;;;;14.88;6.82;;;;;;;12.57;78.92;102979.13;5009126;28;20965;-72
2021/11/09 12:04:54;;;;;;;14.40;7.03;;;;;;;12.43;78.58;102976.63;5005099;28;20034;-72
2021/11/09 12:07:40;;;;;;;18.38;6.63;;;;;;;12.52;79.18;102975.38;5011118;28;20030;-72
2021/11/09 12:10:08;;;;;;;13.00;6.72;;;;;;;12.45;79.45;102971.88;5007632;28;20046;-72
2021/11/09 12:12:34;;;;;;;13.00;6.38;;;;;;;12.36;79.20;102972.06;5005618;28;20041;-73
2021/11/09 12:15:04;;;;;;;16.30;6.60;;;;;;;12.31;78.43;102958.41;5010401;28;20025;-72
2021/11/09 12:17:40;;;;;;;9.73;6.05;;;;;;;12.13;77.08;102973.50;5006976;28;20038;-72
2021/11/09 12:20:07;;;;;;;11.27;5.90;;;;;;;12.09;76.09;102965.03;5008308;28;20048;-72
2021/11/09 12:22:37;;;;;;;16.65;5.97;;;;;;;12.08;77.95;102969.56;5006416;28;20602;-73
2021/11/09 12:25:04;;;;;;;13.50;5.85;;;;;;;12.11;78.72;102971.00;5011648;28;20523;-73
2021/11/09 12:27:52;;;;;;;10.98;5.82;;;;;;;12.07;78.28;102962.53;5014357;28;20096;-72
2021/11/09 12:30:36;;;;;;;11.40;5.68;;;;;;;12.29;79.00;102963.19;5017909;28;20026;-73
2021/11/09 12:33:16;;;;;;;9.10;5.65;;;;;;;12.06;77.27;102960.06;5016617;28;20124;-73
2021/11/09 12:35:51;;;;;;;17.02;6.22;;;;;;;11.71;76.78;102957.47;5011972;28;20034;-72
2021/11/09 12:38:20;;;;;;;12.70;5.32;;;;;;;11.98;76.70;102961.06;5016064;28;20026;-72
2021/11/09 12:40:50;;;;;;;8.95;5.60;;;;;;;13.71;72.64;102956.28;5018371;28;20025;-72
2021/11/09 12:43:20;;;;;;;11.35;5.43;;;;;;;15.69;65.74;102955.34;5007739;28;20030;-73
2021/11/09 12:45:51;;;;;;;10.98;4.72;;;;;;;16.18;61.95;102952.56;5013198;28;20689;-73
2021/11/09 12:48:27;;;;;;;11.55;4.38;;;;;;;14.99;64.42;102962.19;5009182;28;20113;-73
2021/11/09 12:51:06;;;;;;;18.77;5.90;;;;;;;13.70;66.37;102957.34;5008885;28;20059;-73
2021/11/09 12:53:37;;;;;;;8.52;5.05;;;;;;;13.00;70.33;102949.91;5010037;28;20094;-72
2021/11/09 12:56:09;;;;;;;11.27;4.50;;;;;;;12.57;70.80;102959.47;5012406;28;20515;-72
2021/11/09 12:58:44;;;;;;;10.50;4.47;;;;;;;12.44;73.69;102956.78;5029740;28;20029;-72
2021/11/09 13:09:30;;;;;;;12.05;4.75;;;;;;;11.86;75.67;102951.97;5007534;28;20144;-72
2021/11/09 13:11:59;;;;;;;7.20;4.95;;;;;;;11.72;76.13;102956.41;5017222;28;20037;-72
2021/11/09 13:14:50;;;;;;;8.77;5.38;;;;;;;11.77;77.52;102951.25;5011726;28;20033;-72
2021/11/09 13:17:21;;;;;;;10.77;5.05;;;;;;;11.71;77.35;102952.09;5016779;28;20491;-73
2021/11/09 13:20:17;;;;;;;11.18;5.47;;;;;;;11.57;77.58;102945.00;5007560;28;20114;-72
2021/11/09 13:23:00;;;;;;;8.68;4.40;;;;;;;11.37;77.08;102947.63;5004605;28;20091;-72
2021/11/09 13:25:39;;;;;;;8.52;4.15;;;;;;;11.27;77.07;102938.25;5008591;28;20034;-72
2021/11/09 13:28:21;;;;;;;8.43;4.72;;;;;;;11.26;77.23;102940.13;5012718;28;20033;-72
2021/11/09 13:30:55;;;;;;;10.93;4.32;;;;;;;11.18;76.32;102935.75;5008873;28;20034;-72
2021/11/09 13:33:23;;;;;;;5.60;3.85;;;;;;;11.12;76.64;102930.34;5010003;28;20981;-72
2021/11/09 13:35:49;;;;;;;6.72;3.58;;;;;;;11.09;76.52;102934.25;5009708;28;20084;-72
2021/11/09 13:38:37;;;;;;;8.25;3.85;;;;;;;10.86;76.52;102936.38;5010143;28;20067;-72
2021/11/09 13:41:29;;;;;;;9.52;4.68;;;;;;;10.80;77.85;102937.19;5017321;28;20123;-72
2021/11/09 13:43:59;;;;;;;13.13;4.32;;;;;;;10.70;78.39;102942.03;5009413;28;20029;-71
2021/11/09 13:46:30;;;;;;;7.32;4.68;;;;;;;10.73;79.10;102933.59;5013736;28;20091;-70
2021/11/09 13:49:00;;;;;;;9.63;4.95;;;;;;;10.59;78.91;102941.56;5007936;28;20033;-71
2021/11/09 13:51:50;;;;;;;9.30;4.47;;;;;;;10.39;79.53;102937.06;5009136;28;20029;-70